Moore, Texas
Current Conditions -  °F | °C
As of 10:15 AM on Wednesday 22 Oct 2014 (Local Time) from KCVB Reporting Station
Clear Clear  
Wind Chill: 74°   Ceiling: Unl
Heat Index: 74°   Visibility: 10mi
Dew Point: 55°   Wind: 10mph
Humidity: 52%   Direction: 120°ESE
Pressure: 30.14"   Gusts: 16mph
Location:  29.06°N, 99.01°W
Report Text: KCVB 221515Z AUTO 12009G14KT 10SM CLR 23/13 A3014 RMK AO2 T02310127
Loading
Personal Weather Stations






























Interactive Weather Map
Tropical Storm Tracking
New forecast layout! Learn more

10-Day Weather Forecast

Advertisements
Track Severe Weather on mobile